Terminal Aerodrome Forecast
Issued by NWS

Home | Current Version | Previous Version | Text Only | Print | Product List | Glossary On
Versions: 1 2 3 4 5 6 7 8 9 10 11 12 13 14 15 16 17 18 19 20 21 22 23 24 25 26 27 28 29 30 31 32 33 34 35 36 37 38 39 40 41 42 43 44 45
000
FTUS41 KGYX 250030 AAA
TAFLEB
TAF AMD
KLEB 250030Z 2501/2524 36004KT 2SM -SHRA BR OVC002
     FM250900 31007KT P6SM OVC020 PROB30 2510/2512 2SM -SN OVC007
     FM251200 31008KT P6SM OVC020=

USA.gov is the U.S. government's official web portal to all federal, state and local government web resources and services.